Time;durP1;ratioP1;P1;durP2;ratioP2;P2;SDS_P1;SDS_P2;PMS_P1;PMS_P2;Temp;Humidity;BMP_temperature;BMP_pressure;BME280_temperature;BME280_humidity;BME280_pressure;Samples;Min_cycle;Max_cycle;Signal;HPM_P1;HPM_P2
2021/12/31 06:04:10;;;;;;;29.15;22.50;;;;;;;8.82;83.36;100990.28;5598434;31;73746;-58
2021/12/31 06:07:12;;;;;;;30.40;21.90;;;;;;;8.82;83.36;100990.28;5571226;31;34012;-58
2021/12/31 06:10:15;;;;;;;29.80;22.15;;;;;;;8.17;82.75;101002.66;5575191;32;33675;-58
2021/12/31 06:13:17;;;;;;;27.98;22.52;;;;;;;8.15;88.52;100996.75;5578224;32;33661;-59
2021/12/31 06:16:20;;;;;;;26.85;20.75;;;;;;;8.11;79.84;101011.69;5583990;31;34402;-59
2021/12/31 06:19:22;;;;;;;25.50;21.80;;;;;;;8.09;85.63;101015.63;5585605;31;33617;-59
2021/12/31 06:22:24;;;;;;;27.52;22.23;;;;;;;8.22;79.78;101012.59;5576896;31;33650;-59
2021/12/31 06:25:27;;;;;;;26.87;22.30;;;;;;;8.05;77.36;101007.31;5565615;32;33671;-59
2021/12/31 06:28:30;;;;;;;25.67;20.92;;;;;;;8.06;79.56;101021.47;5572811;31;33118;-58
2021/12/31 06:31:32;;;;;;;26.30;21.42;;;;;;;8.18;79.23;101027.50;5583843;31;34374;-59
2021/12/31 06:34:34;;;;;;;25.35;20.77;;;;;;;8.27;84.38;101034.00;5585030;31;33705;-59
2021/12/31 06:37:39;;;;;;;26.17;20.98;;;;;;;8.44;85.87;101032.12;5584948;32;33723;-59
2021/12/31 06:40:41;;;;;;;26.67;21.85;;;;;;;8.08;77.37;101044.22;5585238;32;34207;-59
2021/12/31 06:43:44;;;;;;;26.35;20.73;;;;;;;8.13;78.76;101049.59;5584785;31;34255;-59
2021/12/31 06:46:46;;;;;;;24.52;20.62;;;;;;;8.40;82.52;101044.34;5552400;32;33759;-59
2021/12/31 06:49:48;;;;;;;27.17;21.20;;;;;;;8.49;79.03;101043.94;5545678;32;33903;-59
2021/12/31 06:52:50;;;;;;;23.15;19.58;;;;;;;8.53;80.15;101045.84;5547185;32;34378;-59
2021/12/31 06:55:53;;;;;;;26.08;20.05;;;;;;;8.58;79.06;101039.78;5564695;32;34809;-59
2021/12/31 06:58:55;;;;;;;24.20;19.62;;;;;;;8.20;78.12;101054.75;5564844;32;33664;-59
2021/12/31 07:01:58;;;;;;;23.75;19.00;;;;;;;8.41;87.15;101056.69;5565138;32;33365;-59
2021/12/31 07:05:00;;;;;;;23.87;19.12;;;;;;;8.33;82.69;101061.59;5564788;32;34307;-59
2021/12/31 07:08:03;;;;;;;22.70;18.80;;;;;;;8.60;78.54;101051.81;5564505;32;34110;-59
2021/12/31 07:11:07;;;;;;;23.27;18.62;;;;;;;8.23;83.15;101064.94;5557264;32;34404;-59
2021/12/31 07:14:10;;;;;;;22.10;18.67;;;;;;;8.20;79.81;101062.78;5537939;32;33549;-59
2021/12/31 07:17:12;;;;;;;22.10;18.55;;;;;;;8.26;80.11;101058.31;5532366;32;34255;-58
2021/12/31 07:20:15;;;;;;;22.70;19.42;;;;;;;8.27;80.03;101073.28;5532012;32;33798;-59
2021/12/31 07:23:19;;;;;;;23.02;19.02;;;;;;;8.41;85.33;101079.91;5532269;32;34290;-59
2021/12/31 07:26:22;;;;;;;23.58;18.48;;;;;;;8.34;79.59;101081.91;5532196;32;33675;-59
2021/12/31 07:29:24;;;;;;;22.08;19.12;;;;;;;8.51;79.69;101084.56;5552704;32;33806;-59
2021/12/31 07:32:27;;;;;;;21.90;18.98;;;;;;;8.43;86.87;101083.94;5551534;32;34272;-58
2021/12/31 07:35:31;;;;;;;23.27;19.02;;;;;;;8.28;79.39;101085.56;5551270;32;33587;-59
2021/12/31 07:38:35;;;;;;;23.30;19.20;;;;;;;8.26;79.66;101077.81;5550455;32;33653;-59
2021/12/31 07:41:37;;;;;;;22.33;19.10;;;;;;;8.27;89.85;101081.28;5551419;32;34411;-59
2021/12/31 07:44:40;;;;;;;22.98;19.15;;;;;;;8.27;80.76;101082.09;5551157;32;33672;-59
2021/12/31 07:47:43;;;;;;;23.20;18.30;;;;;;;8.29;79.63;101092.56;5551163;32;33676;-59
2021/12/31 07:50:46;;;;;;;21.70;17.55;;;;;;;8.49;81.24;101089.34;5551136;32;33643;-59
2021/12/31 07:53:48;;;;;;;24.98;18.37;;;;;;;8.74;90.90;101087.00;5550986;32;33733;-59
2021/12/31 07:56:50;;;;;;;22.20;18.48;;;;;;;8.60;79.98;101093.75;5551462;32;33848;-59
2021/12/31 07:59:52;;;;;;;25.67;18.33;;;;;;;8.56;79.54;101089.97;5551313;32;33738;-59
2021/12/31 08:02:56;;;;;;;22.00;18.55;;;;;;;8.52;86.02;101095.00;5550787;32;33623;-59
2021/12/31 08:05:59;;;;;;;24.00;19.02;;;;;;;8.41;81.21;101094.09;5551846;32;34232;-58
2021/12/31 08:09:03;;;;;;;23.70;19.85;;;;;;;8.58;88.10;101103.91;5551729;32;33649;-59
2021/12/31 08:12:06;;;;;;;22.98;19.75;;;;;;;8.56;81.36;101098.78;5551643;32;33305;-59
2021/12/31 08:15:08;;;;;;;21.75;18.02;;;;;;;8.76;81.28;101100.91;5551561;32;33722;-59
2021/12/31 08:18:10;;;;;;;20.80;18.12;;;;;;;8.96;87.22;101102.19;5551484;32;33754;-58
2021/12/31 08:21:13;;;;;;;22.60;18.00;;;;;;;8.97;80.40;101101.13;5550107;32;34147;-58
2021/12/31 08:24:15;;;;;;;22.08;18.50;;;;;;;8.87;81.49;101113.34;5553125;32;33810;-59
2021/12/31 08:27:17;;;;;;;21.27;18.25;;;;;;;9.19;82.72;101109.91;5570363;32;33703;-59
2021/12/31 08:30:20;;;;;;;22.60;18.52;;;;;;;9.29;87.88;101109.19;5571125;31;34212;-59
2021/12/31 08:33:22;;;;;;;22.85;17.80;;;;;;;9.45;83.58;101107.47;5570863;32;33610;-59
2021/12/31 08:36:26;;;;;;;19.73;17.08;;;;;;;9.44;82.56;101095.13;5570905;32;33859;-58
2021/12/31 08:39:28;;;;;;;20.90;18.60;;;;;;;9.49;84.13;101095.19;5570993;32;33724;-58
2021/12/31 08:42:31;;;;;;;22.80;20.40;;;;;;;9.55;88.60;101100.34;5571156;32;34067;-59
2021/12/31 08:45:33;;;;;;;23.02;18.42;;;;;;;9.59;84.15;101108.66;5571228;32;33676;-59
2021/12/31 08:48:35;;;;;;;18.85;16.17;;;;;;;10.08;87.49;101090.53;5571354;32;34207;-58
2021/12/31 08:51:38;;;;;;;19.42;16.73;;;;;;;10.39;88.79;101098.75;5543986;32;33994;-58
2021/12/31 08:54:40;;;;;;;19.85;17.00;;;;;;;10.52;82.19;101098.25;5531493;32;34350;-59
